LAN weather

Capital City Airport
Lansing, Michigan, United States

Public forecast

Using degrees Fahrenheit for public forecast. Weather courtesy of forecast.io.

METAR (pilot weather report)

Retrieved 2019/05/22 03:53 UTC (26 minutes ago):

KLAN 220353Z 11007KT 10SM CLR 12/03 A3012 RMK AO2 SLP200 T01220033

TAF (pilot weather forecast)

Forecast is more than 12 hours old.

Retrieved 2019/05/21 00:33 UTC (1 day ago):

TAF KLAN 212330Z 2200/2224 12010KT P6SM OVC100 FM220300 11010G18KT P6SM VCSH BKN080 FM220800 10015G23KT P6SM -SHRA OVC080 WS020/13040KT FM221200 12012G20KT P6SM -SHRA VCTS BKN035CB WS006/14015KT FM221600 13012KT P6SM BKN035